createdAt,value
2022-07-29T00:01:43.568Z,18.30
2022-07-29T00:04:14.110Z,18.20
2022-07-29T00:06:44.833Z,18.20
2022-07-29T00:09:12.203Z,18.20
2022-07-29T00:11:39.515Z,18.20
2022-07-29T00:14:06.799Z,18.20
2022-07-29T00:16:34.273Z,18.20
2022-07-29T00:19:02.470Z,18.20
2022-07-29T00:21:30.246Z,18.20
2022-07-29T00:23:58.812Z,18.20
2022-07-29T00:26:28.191Z,18.20
2022-07-29T00:29:17.103Z,18.20
2022-07-29T00:31:42.602Z,18.20
2022-07-29T00:34:29.811Z,18.20
2022-07-29T00:36:57.666Z,18.10
2022-07-29T00:39:24.945Z,18.20
2022-07-29T00:41:54.889Z,18.10
2022-07-29T00:44:22.147Z,18.10
2022-07-29T00:46:49.400Z,18.10
2022-07-29T00:49:16.669Z,18.00
2022-07-29T00:51:44.096Z,18.00
2022-07-29T00:54:11.315Z,18.10
2022-07-29T00:56:38.542Z,18.00
2022-07-29T00:59:05.728Z,18.00
2022-07-29T01:01:34.147Z,18.00
2022-07-29T01:04:01.432Z,18.00
2022-07-29T01:06:28.786Z,18.00
2022-07-29T01:08:56.399Z,17.90
2022-07-29T01:11:23.822Z,17.90
2022-07-29T01:13:51.170Z,17.90
2022-07-29T01:16:33.320Z,17.80
2022-07-29T01:19:13.066Z,17.80
2022-07-29T01:21:56.070Z,17.90
2022-07-29T01:25:03.139Z,17.90
2022-07-29T01:27:55.465Z,17.80
2022-07-29T01:30:25.115Z,17.80
2022-07-29T01:32:58.134Z,17.80
2022-07-29T01:35:29.584Z,17.80
2022-07-29T01:38:21.248Z,17.90
2022-07-29T01:40:54.008Z,17.90
2022-07-29T01:43:28.004Z,17.90
2022-07-29T01:46:02.441Z,17.90
2022-07-29T01:48:41.960Z,17.90
2022-07-29T01:51:32.459Z,17.80
2022-07-29T01:54:07.607Z,17.90
2022-07-29T01:56:37.298Z,17.90
2022-07-29T01:59:07.066Z,17.90
2022-07-29T02:01:35.782Z,17.80
2022-07-29T02:04:06.215Z,17.90
2022-07-29T02:06:35.907Z,17.90
2022-07-29T02:09:03.738Z,17.90
2022-07-29T02:11:34.143Z,17.90
2022-07-29T02:14:02.667Z,17.90
2022-07-29T02:16:33.376Z,17.90
2022-07-29T02:19:02.813Z,17.90
2022-07-29T02:21:32.944Z,17.90
2022-07-29T02:24:02.523Z,18.00
2022-07-29T02:26:31.623Z,18.00
2022-07-29T02:29:00.999Z,18.00
2022-07-29T02:31:33.499Z,17.90
2022-07-29T02:34:07.287Z,17.90
2022-07-29T02:36:35.173Z,17.90
2022-07-29T02:39:04.256Z,17.90
2022-07-29T02:41:34.194Z,17.90
2022-07-29T02:44:17.020Z,17.90
2022-07-29T02:46:52.936Z,17.90
2022-07-29T02:49:29.173Z,18.00
2022-07-29T02:52:01.290Z,17.90
2022-07-29T02:54:46.933Z,17.90
2022-07-29T02:57:55.034Z,17.90
2022-07-29T03:00:28.087Z,17.90
2022-07-29T03:02:59.498Z,17.90
2022-07-29T03:05:27.178Z,17.90
2022-07-29T03:07:58.299Z,17.90
2022-07-29T03:10:27.102Z,17.80
2022-07-29T03:12:56.195Z,17.90
2022-07-29T03:15:24.758Z,17.90
2022-07-29T03:17:53.620Z,17.90
2022-07-29T03:20:21.571Z,17.80
2022-07-29T03:22:49.048Z,17.80
2022-07-29T03:25:17.566Z,17.80
2022-07-29T03:27:45.864Z,17.80
2022-07-29T03:30:16.866Z,17.80
2022-07-29T03:32:48.199Z,17.80
2022-07-29T03:35:17.473Z,17.80
2022-07-29T03:37:45.250Z,17.80
2022-07-29T03:40:26.222Z,17.70
2022-07-29T03:42:54.891Z,17.70
2022-07-29T03:45:23.616Z,17.70
2022-07-29T03:48:02.941Z,17.70
2022-07-29T03:50:31.656Z,17.70
2022-07-29T03:53:00.587Z,17.70
2022-07-29T03:55:30.301Z,17.70
2022-07-29T03:57:58.225Z,17.70
2022-07-29T04:00:26.498Z,17.60
2022-07-29T04:02:53.773Z,17.70
2022-07-29T04:05:21.159Z,17.60
2022-07-29T04:07:49.865Z,17.70
2022-07-29T04:10:18.061Z,17.60
2022-07-29T04:12:57.483Z,17.70
2022-07-29T04:15:24.711Z,17.70
2022-07-29T04:17:51.912Z,17.70
2022-07-29T04:20:19.412Z,17.80
2022-07-29T04:22:46.593Z,17.80
2022-07-29T04:25:13.808Z,17.90
2022-07-29T04:28:00.965Z,17.90
2022-07-29T04:30:28.783Z,17.90
2022-07-29T04:32:56.013Z,17.90
2022-07-29T04:35:23.263Z,17.90
2022-07-29T04:37:50.482Z,17.90
2022-07-29T04:40:17.786Z,17.90
2022-07-29T04:42:46.427Z,18.00
2022-07-29T04:45:13.967Z,18.00
2022-07-29T04:47:41.822Z,18.00
2022-07-29T04:50:10.279Z,18.10
2022-07-29T04:52:37.842Z,18.10
2022-07-29T04:55:05.977Z,18.20
2022-07-29T04:57:33.390Z,18.20
2022-07-29T05:00:00.644Z,18.30
2022-07-29T05:02:27.860Z,18.30
2022-07-29T05:04:55.083Z,18.40
2022-07-29T05:07:22.425Z,18.40
2022-07-29T05:09:49.733Z,18.40
2022-07-29T05:12:17.358Z,18.40
2022-07-29T05:14:44.549Z,18.40
2022-07-29T05:17:11.827Z,18.30
2022-07-29T05:19:39.540Z,18.40
2022-07-29T05:22:07.115Z,18.40
2022-07-29T05:24:34.322Z,18.40
2022-07-29T05:27:01.563Z,18.40
2022-07-29T05:29:42.750Z,18.50
2022-07-29T05:32:13.198Z,18.50
2022-07-29T05:34:50.089Z,18.70
2022-07-29T05:37:21.636Z,18.70
2022-07-29T05:39:56.328Z,18.80
2022-07-29T05:42:25.381Z,18.80
2022-07-29T05:44:53.853Z,19.00
2022-07-29T05:47:21.120Z,19.10
2022-07-29T05:49:48.311Z,19.20
2022-07-29T05:52:15.995Z,19.30
2022-07-29T05:54:43.411Z,19.40
2022-07-29T05:57:20.096Z,19.50
2022-07-29T05:59:47.475Z,19.50
2022-07-29T06:02:14.942Z,19.50
2022-07-29T06:04:42.384Z,19.60
2022-07-29T06:07:09.759Z,19.60
2022-07-29T06:09:36.917Z,19.70
2022-07-29T06:12:04.503Z,19.80
2022-07-29T06:14:31.766Z,19.90
2022-07-29T06:16:58.921Z,19.90
2022-07-29T06:19:26.752Z,20.00
2022-07-29T06:21:53.924Z,20.00
2022-07-29T06:24:21.163Z,20.10
2022-07-29T06:26:48.430Z,20.10
2022-07-29T06:29:15.694Z,20.10
2022-07-29T06:31:42.921Z,20.20
2022-07-29T06:34:10.450Z,20.20
2022-07-29T06:36:39.823Z,20.30
2022-07-29T06:39:09.083Z,20.40
2022-07-29T06:41:36.606Z,20.50
2022-07-29T06:44:10.295Z,20.80
2022-07-29T06:46:37.707Z,21.00
2022-07-29T06:49:05.749Z,21.20
2022-07-29T06:51:33.375Z,21.30
2022-07-29T06:54:03.221Z,21.50
2022-07-29T06:56:42.568Z,21.80
2022-07-29T06:59:11.753Z,22.10
2022-07-29T07:01:41.761Z,22.40
2022-07-29T07:04:10.009Z,22.80
2022-07-29T07:06:37.750Z,23.00
2022-07-29T07:09:05.158Z,23.20
2022-07-29T07:11:32.546Z,23.40
2022-07-29T07:14:03.589Z,23.50
2022-07-29T07:16:32.769Z,23.60
2022-07-29T07:19:00.560Z,23.60
2022-07-29T07:21:30.320Z,23.70
2022-07-29T07:23:58.835Z,23.80
2022-07-29T07:26:26.450Z,23.60
2022-07-29T07:28:53.901Z,23.50
2022-07-29T07:31:21.420Z,23.40
2022-07-29T07:33:48.718Z,23.30
2022-07-29T07:36:15.875Z,23.00
2022-07-29T07:38:43.062Z,22.90
2022-07-29T07:41:10.382Z,22.80
2022-07-29T07:43:37.583Z,22.80
2022-07-29T07:46:05.158Z,23.00
2022-07-29T07:48:32.413Z,23.30
2022-07-29T07:50:59.563Z,23.60
2022-07-29T07:53:26.825Z,23.80
2022-07-29T07:56:09.947Z,24.00
2022-07-29T07:58:39.376Z,24.20
2022-07-29T08:01:06.670Z,24.50
2022-07-29T08:03:34.357Z,25.00
2022-07-29T08:06:01.831Z,25.50
2022-07-29T08:08:29.053Z,26.00
2022-07-29T08:10:56.909Z,26.30
2022-07-29T08:13:28.074Z,27.10
2022-07-29T08:15:59.090Z,26.80
2022-07-29T08:18:31.765Z,27.00
2022-07-29T08:20:59.431Z,27.20
2022-07-29T08:23:46.131Z,27.50
2022-07-29T08:26:16.301Z,27.80
2022-07-29T08:28:50.292Z,28.10
2022-07-29T08:31:18.193Z,28.50
2022-07-29T08:33:45.626Z,28.70
2022-07-29T08:36:14.063Z,28.90
2022-07-29T08:38:41.401Z,29.10
2022-07-29T08:41:08.704Z,29.20
2022-07-29T08:43:38.256Z,29.40
2022-07-29T08:46:05.747Z,29.60
2022-07-29T08:48:34.194Z,29.80
2022-07-29T08:51:02.481Z,30.00
2022-07-29T08:53:30.424Z,30.20
2022-07-29T08:55:58.776Z,30.50
2022-07-29T08:58:27.770Z,30.70
2022-07-29T09:00:58.023Z,30.80
2022-07-29T09:03:28.204Z,30.90
2022-07-29T09:05:55.798Z,31.00
2022-07-29T09:08:24.580Z,31.30
2022-07-29T09:10:52.621Z,31.40
2022-07-29T09:13:19.857Z,31.70
2022-07-29T09:15:47.099Z,32.00
2022-07-29T09:18:39.115Z,32.50
2022-07-29T09:21:26.792Z,33.40
2022-07-29T09:24:11.688Z,35.40
2022-07-29T09:26:42.460Z,37.20
2022-07-29T09:29:20.731Z,37.90
2022-07-29T09:31:50.529Z,38.50
2022-07-29T09:34:32.562Z,38.20
2022-07-29T09:36:59.787Z,37.50
2022-07-29T09:39:38.910Z,36.70
2022-07-29T09:42:07.289Z,36.50
2022-07-29T09:44:50.052Z,37.10
2022-07-29T09:47:19.215Z,36.50
2022-07-29T09:49:55.044Z,35.50
2022-07-29T09:52:22.515Z,34.90
2022-07-29T09:54:49.846Z,35.50
2022-07-29T09:57:30.561Z,39.10
2022-07-29T09:59:59.583Z,43.10
2022-07-29T10:02:32.153Z,44.50
2022-07-29T10:05:01.448Z,46.10
2022-07-29T10:07:56.987Z,47.00
2022-07-29T10:10:32.905Z,48.70
2022-07-29T10:13:07.806Z,50.10
2022-07-29T10:15:40.239Z,51.30
2022-07-29T10:18:12.126Z,51.20
2022-07-29T10:20:40.313Z,50.60
2022-07-29T10:23:07.469Z,49.70
2022-07-29T10:25:34.682Z,48.10
2022-07-29T10:28:01.895Z,46.50
2022-07-29T10:30:29.482Z,44.90
2022-07-29T10:33:17.693Z,43.60
2022-07-29T10:36:12.851Z,42.60
2022-07-29T10:39:03.332Z,42.30
2022-07-29T10:42:08.277Z,42.70
2022-07-29T10:44:40.419Z,43.60
2022-07-29T10:47:07.828Z,44.50
2022-07-29T10:49:35.193Z,46.00
2022-07-29T10:52:07.257Z,46.80
2022-07-29T10:54:34.879Z,45.80
2022-07-29T10:57:14.416Z,44.80
2022-07-29T10:59:42.922Z,43.90
2022-07-29T11:02:42.249Z,44.90
2022-07-29T11:05:18.762Z,47.50
2022-07-29T11:11:19.870Z,51.00
2022-07-29T11:13:52.233Z,50.40
2022-07-29T11:16:25.200Z,48.60
2022-07-29T11:19:11.314Z,47.30
2022-07-29T11:21:54.145Z,45.10
2022-07-29T11:24:33.115Z,44.00
2022-07-29T11:27:13.182Z,44.70
2022-07-29T11:29:49.804Z,47.40
2022-07-29T11:32:22.893Z,49.20
2022-07-29T11:35:18.832Z,49.50
2022-07-29T11:37:55.910Z,46.50
2022-07-29T11:40:25.103Z,45.40
2022-07-29T11:42:53.059Z,46.50
2022-07-29T11:45:42.082Z,47.70
2022-07-29T11:48:29.099Z,48.50
2022-07-29T11:50:58.371Z,49.40
2022-07-29T11:53:26.003Z,50.20
2022-07-29T11:55:58.212Z,51.00
2022-07-29T11:58:27.052Z,51.30
2022-07-29T12:00:55.556Z,51.20
2022-07-29T12:03:34.208Z,51.70
2022-07-29T12:06:14.937Z,52.30
2022-07-29T12:08:44.334Z,51.60
2022-07-29T12:11:21.714Z,51.00
2022-07-29T12:13:51.290Z,49.40
2022-07-29T12:16:25.452Z,46.70
2022-07-29T12:19:02.592Z,44.40
2022-07-29T12:21:56.297Z,43.20
2022-07-29T12:24:26.991Z,44.00
2022-07-29T12:26:56.620Z,45.60
2022-07-29T12:29:35.237Z,46.80
2022-07-29T12:32:05.461Z,47.40
2022-07-29T12:34:33.374Z,47.70
2022-07-29T12:37:01.830Z,48.30
2022-07-29T12:39:29.346Z,49.10
2022-07-29T12:42:04.873Z,49.60
2022-07-29T12:44:46.461Z,50.20
2022-07-29T12:47:13.994Z,50.20
2022-07-29T12:49:41.218Z,50.30
2022-07-29T12:52:31.799Z,50.70
2022-07-29T12:54:59.315Z,50.80
2022-07-29T12:57:26.849Z,50.10
2022-07-29T13:00:24.086Z,50.00
2022-07-29T13:02:59.092Z,49.50
2022-07-29T13:05:48.824Z,49.10
2022-07-29T13:08:20.262Z,49.10
2022-07-29T13:10:49.363Z,49.20
2022-07-29T13:13:16.591Z,49.20
2022-07-29T13:15:45.583Z,49.00
2022-07-29T13:18:32.978Z,48.40
2022-07-29T13:21:16.600Z,47.90
2022-07-29T13:23:45.959Z,48.10
2022-07-29T13:26:13.419Z,48.40
2022-07-29T13:28:40.873Z,48.60
2022-07-29T13:31:11.807Z,48.90
2022-07-29T13:33:39.179Z,49.10
2022-07-29T13:36:06.686Z,49.30
2022-07-29T13:38:34.812Z,49.40
2022-07-29T13:41:03.046Z,48.90
2022-07-29T13:43:30.577Z,47.80
2022-07-29T13:45:57.862Z,47.40
2022-07-29T13:48:25.067Z,47.80
2022-07-29T13:50:52.356Z,48.00
2022-07-29T13:53:19.625Z,48.10
2022-07-29T13:55:54.748Z,48.20
2022-07-29T13:58:21.990Z,47.60
2022-07-29T14:00:49.404Z,46.90
2022-07-29T14:03:16.790Z,46.50
2022-07-29T14:05:44.202Z,45.90
2022-07-29T14:08:11.462Z,45.70
2022-07-29T14:10:38.649Z,45.80
2022-07-29T14:13:05.902Z,45.80
2022-07-29T14:15:52.092Z,45.60
2022-07-29T14:18:19.325Z,45.40
2022-07-29T14:20:46.542Z,45.50
2022-07-29T14:23:16.220Z,45.30
2022-07-29T14:25:43.707Z,45.40
2022-07-29T14:28:11.779Z,45.00
2022-07-29T14:30:42.041Z,45.10
2022-07-29T14:33:09.236Z,45.10
2022-07-29T14:35:36.515Z,44.70
2022-07-29T14:38:03.893Z,44.40
2022-07-29T14:40:31.150Z,44.30
2022-07-29T14:43:00.781Z,44.20
2022-07-29T14:45:29.154Z,44.30
2022-07-29T14:47:57.505Z,44.50
2022-07-29T14:50:31.288Z,44.10
2022-07-29T14:53:03.114Z,43.50
2022-07-29T14:55:30.423Z,43.20
2022-07-29T14:58:07.726Z,43.20
2022-07-29T15:00:37.754Z,43.40
2022-07-29T15:03:05.677Z,43.40
2022-07-29T15:05:33.069Z,43.00
2022-07-29T15:08:00.725Z,42.70
2022-07-29T15:10:28.274Z,42.40
2022-07-29T15:12:56.542Z,42.20
2022-07-29T15:15:23.826Z,41.70
2022-07-29T15:17:51.070Z,41.20
2022-07-29T15:20:18.919Z,41.00
2022-07-29T15:22:46.126Z,40.70
2022-07-29T15:25:13.519Z,40.60
2022-07-29T15:27:40.916Z,40.50
2022-07-29T15:30:32.857Z,40.20
2022-07-29T15:33:03.789Z,40.10
2022-07-29T15:35:31.250Z,40.00
2022-07-29T15:37:58.443Z,39.80
2022-07-29T15:40:25.839Z,39.60
2022-07-29T15:42:53.000Z,39.30
2022-07-29T15:45:20.321Z,39.20
2022-07-29T15:47:47.526Z,39.10
2022-07-29T15:50:16.672Z,39.10
2022-07-29T15:52:43.902Z,39.10
2022-07-29T15:55:15.627Z,39.20
2022-07-29T15:57:42.864Z,39.20
2022-07-29T16:00:10.660Z,39.10
2022-07-29T16:02:38.027Z,38.90
2022-07-29T16:05:05.684Z,38.70
2022-07-29T16:07:37.731Z,38.30
2022-07-29T16:10:05.557Z,37.70
2022-07-29T16:12:32.722Z,37.40
2022-07-29T16:14:59.916Z,37.50
2022-07-29T16:17:27.656Z,37.60
2022-07-29T16:19:54.955Z,37.90
2022-07-29T16:22:22.684Z,37.70
2022-07-29T16:24:49.898Z,37.60
2022-07-29T16:27:17.091Z,37.40
2022-07-29T16:29:44.323Z,36.80
2022-07-29T16:32:11.634Z,36.10
2022-07-29T16:34:39.791Z,35.40
2022-07-29T16:37:07.043Z,34.80
2022-07-29T16:39:34.252Z,34.50
2022-07-29T16:42:04.996Z,34.50
2022-07-29T16:44:33.089Z,34.60
2022-07-29T16:47:01.599Z,34.60
2022-07-29T16:49:30.026Z,34.80
2022-07-29T16:51:59.727Z,34.60
2022-07-29T16:54:27.821Z,34.50
2022-07-29T16:56:55.285Z,34.50
2022-07-29T16:59:22.890Z,34.30
2022-07-29T17:01:52.802Z,33.90
2022-07-29T17:04:20.109Z,33.30
2022-07-29T17:06:50.517Z,32.50
2022-07-29T17:09:17.696Z,31.60
2022-07-29T17:11:52.834Z,30.80
2022-07-29T17:14:27.525Z,30.10
2022-07-29T17:17:00.249Z,29.40
2022-07-29T17:19:29.911Z,28.70
2022-07-29T17:22:05.008Z,28.30
2022-07-29T17:24:38.982Z,28.00
2022-07-29T17:27:10.333Z,28.00
2022-07-29T17:29:38.863Z,28.50
2022-07-29T17:32:07.768Z,29.10
2022-07-29T17:34:36.575Z,29.40
2022-07-29T17:37:05.502Z,29.20
2022-07-29T17:39:34.972Z,28.90
2022-07-29T17:42:03.470Z,28.70
2022-07-29T17:44:30.830Z,28.40
2022-07-29T17:47:02.349Z,27.90
2022-07-29T17:49:29.787Z,27.50
2022-07-29T17:52:00.747Z,27.20
2022-07-29T17:54:28.407Z,27.00
2022-07-29T17:56:55.785Z,26.70
2022-07-29T17:59:23.211Z,26.70
2022-07-29T18:01:50.494Z,26.60
2022-07-29T18:04:23.140Z,26.90
2022-07-29T18:06:50.534Z,27.30
2022-07-29T18:09:17.833Z,27.60
2022-07-29T18:11:46.180Z,27.80
2022-07-29T18:14:13.428Z,28.20
2022-07-29T18:16:41.013Z,28.40
2022-07-29T18:19:08.340Z,28.70
2022-07-29T18:21:43.430Z,29.00
2022-07-29T18:24:19.249Z,29.10
2022-07-29T18:26:46.424Z,29.00
2022-07-29T18:29:13.629Z,28.80
2022-07-29T18:31:41.083Z,28.60
2022-07-29T18:34:08.480Z,28.60
2022-07-29T18:36:35.659Z,28.60
2022-07-29T18:39:03.030Z,28.30
2022-07-29T18:41:30.228Z,28.20
2022-07-29T18:44:02.656Z,28.10
2022-07-29T18:46:31.629Z,28.00
2022-07-29T18:49:00.544Z,27.80
2022-07-29T18:51:27.790Z,27.50
2022-07-29T18:53:55.077Z,27.20
2022-07-29T18:56:22.330Z,26.80
2022-07-29T18:58:49.539Z,26.50
2022-07-29T19:01:18.892Z,26.20
2022-07-29T19:03:46.101Z,25.80
2022-07-29T19:06:13.630Z,25.60
2022-07-29T19:08:41.691Z,25.20
2022-07-29T19:11:08.950Z,25.00
2022-07-29T19:13:37.042Z,24.80
2022-07-29T19:16:05.610Z,24.60
2022-07-29T19:18:32.842Z,24.30
2022-07-29T19:21:00.180Z,24.10
2022-07-29T19:23:27.561Z,23.80
2022-07-29T19:25:54.731Z,23.60
2022-07-29T19:28:22.289Z,23.30
2022-07-29T19:30:49.880Z,23.30
2022-07-29T19:33:20.393Z,23.10
2022-07-29T19:35:51.527Z,22.90
2022-07-29T19:38:22.154Z,22.70
2022-07-29T19:40:49.437Z,22.50
2022-07-29T19:43:51.367Z,22.40
2022-07-29T19:46:06.629Z,22.20
2022-07-29T19:48:34.193Z,21.90
2022-07-29T19:51:04.261Z,21.80
2022-07-29T19:53:32.788Z,21.70
2022-07-29T19:55:59.932Z,21.60
2022-07-29T19:58:30.242Z,21.40
2022-07-29T20:01:00.685Z,21.30
2022-07-29T20:03:28.366Z,21.20
2022-07-29T20:05:55.686Z,21.10
2022-07-29T20:08:22.879Z,20.90
2022-07-29T20:10:54.647Z,20.80
2022-07-29T20:13:21.850Z,20.80
2022-07-29T20:15:49.218Z,20.70
2022-07-29T20:18:16.435Z,20.50
2022-07-29T20:20:43.958Z,20.40
2022-07-29T20:23:13.402Z,20.40
2022-07-29T20:25:43.176Z,20.30
2022-07-29T20:28:10.394Z,20.20
2022-07-29T20:30:38.411Z,20.10
2022-07-29T20:33:06.602Z,20.10
2022-07-29T20:35:34.491Z,20.10
2022-07-29T20:38:01.885Z,20.00
2022-07-29T20:40:31.122Z,19.90
2022-07-29T20:43:01.058Z,19.90
2022-07-29T20:45:28.247Z,19.80
2022-07-29T20:47:55.626Z,19.80
2022-07-29T20:50:24.456Z,19.70
2022-07-29T20:52:54.929Z,19.70
2022-07-29T20:55:22.173Z,19.60
2022-07-29T20:57:49.786Z,19.60
2022-07-29T21:00:17.195Z,19.50
2022-07-29T21:02:47.165Z,19.50
2022-07-29T21:05:14.570Z,19.50
2022-07-29T21:07:41.789Z,19.40
2022-07-29T21:10:09.470Z,19.40
2022-07-29T21:12:36.820Z,19.40
2022-07-29T21:15:06.308Z,19.40
2022-07-29T21:17:40.585Z,19.30
2022-07-29T21:20:08.511Z,19.30
2022-07-29T21:22:35.800Z,19.30
2022-07-29T21:25:03.424Z,19.20
2022-07-29T21:27:49.358Z,19.20
2022-07-29T21:30:16.777Z,19.10
2022-07-29T21:32:44.217Z,19.10
2022-07-29T21:35:27.267Z,19.00
2022-07-29T21:37:59.120Z,19.00
2022-07-29T21:40:26.312Z,18.90
2022-07-29T21:42:53.481Z,18.90
2022-07-29T21:45:20.675Z,18.90
2022-07-29T21:47:47.884Z,18.80
2022-07-29T21:50:15.111Z,18.80
2022-07-29T21:52:42.293Z,18.70
2022-07-29T21:55:10.616Z,18.60
2022-07-29T21:57:38.844Z,18.70
2022-07-29T22:00:08.286Z,18.70
2022-07-29T22:02:39.676Z,18.60
2022-07-29T22:05:07.199Z,18.60
2022-07-29T22:07:55.489Z,18.50
2022-07-29T22:10:22.396Z,18.50
2022-07-29T22:12:54.396Z,18.50
2022-07-29T22:15:22.279Z,18.50
2022-07-29T22:17:49.789Z,18.40
2022-07-29T22:20:17.767Z,18.40
2022-07-29T22:22:45.126Z,18.40
2022-07-29T22:25:12.400Z,18.30
2022-07-29T22:27:39.687Z,18.30
2022-07-29T22:30:07.997Z,18.30
2022-07-29T22:32:35.617Z,18.20
2022-07-29T22:35:02.910Z,18.20
2022-07-29T22:37:30.220Z,18.10
2022-07-29T22:39:57.441Z,18.20
2022-07-29T22:42:24.637Z,18.20
2022-07-29T22:44:51.810Z,18.10
2022-07-29T22:47:19.003Z,18.10
2022-07-29T22:50:06.615Z,18.10
2022-07-29T22:52:33.846Z,18.10
2022-07-29T22:55:01.040Z,18.10
2022-07-29T22:57:28.615Z,18.00
2022-07-29T22:59:55.862Z,18.00
2022-07-29T23:02:23.054Z,18.00
2022-07-29T23:04:50.273Z,18.00
2022-07-29T23:07:17.635Z,18.00
2022-07-29T23:09:44.834Z,18.00
2022-07-29T23:12:12.062Z,17.90
2022-07-29T23:14:39.333Z,18.00
2022-07-29T23:17:06.633Z,17.90
2022-07-29T23:19:33.848Z,17.90
2022-07-29T23:22:01.053Z,17.90
2022-07-29T23:24:28.245Z,17.90
2022-07-29T23:26:55.435Z,17.80
2022-07-29T23:29:22.679Z,17.80
2022-07-29T23:31:49.937Z,17.80
2022-07-29T23:34:17.187Z,17.90
2022-07-29T23:36:44.365Z,17.80
2022-07-29T23:39:13.061Z,17.80
2022-07-29T23:41:40.404Z,17.80
2022-07-29T23:44:07.694Z,17.80
2022-07-29T23:46:35.010Z,17.80
2022-07-29T23:49:02.323Z,17.80
2022-07-29T23:51:29.703Z,17.80
2022-07-29T23:53:57.172Z,17.80
2022-07-29T23:56:24.420Z,17.80
2022-07-29T23:58:51.615Z,17.70
